sensor_id;sensor_type;location;lat;lon;timestamp;P1;durP1;ratioP1;P2;durP2;ratioP2
59016;SDS011;44800;55.600;38.134;2023-05-19T00:01:11;17.60;;;12.05;;
59016;SDS011;44800;55.600;38.134;2023-05-19T00:03:49;17.30;;;10.43;;
59016;SDS011;44800;55.600;38.134;2023-05-19T00:06:21;21.67;;;9.93;;
59016;SDS011;44800;55.600;38.134;2023-05-19T00:08:53;17.75;;;10.77;;
59016;SDS011;44800;55.600;38.134;2023-05-19T00:11:24;15.65;;;10.48;;
59016;SDS011;44800;55.600;38.134;2023-05-19T00:13:53;16.88;;;10.65;;
59016;SDS011;44800;55.600;38.134;2023-05-19T00:16:23;22.92;;;9.85;;
59016;SDS011;44800;55.600;38.134;2023-05-19T00:18:55;14.57;;;10.18;;
59016;SDS011;44800;55.600;38.134;2023-05-19T00:21:25;18.40;;;10.10;;
59016;SDS011;44800;55.600;38.134;2023-05-19T00:23:54;18.17;;;10.50;;
59016;SDS011;44800;55.600;38.134;2023-05-19T00:26:23;16.35;;;11.18;;
59016;SDS011;44800;55.600;38.134;2023-05-19T00:28:52;18.23;;;11.73;;
59016;SDS011;44800;55.600;38.134;2023-05-19T00:31:21;18.90;;;11.55;;
59016;SDS011;44800;55.600;38.134;2023-05-19T00:33:49;23.70;;;12.25;;
59016;SDS011;44800;55.600;38.134;2023-05-19T00:36:19;18.00;;;11.57;;
59016;SDS011;44800;55.600;38.134;2023-05-19T00:38:48;16.83;;;11.27;;
59016;SDS011;44800;55.600;38.134;2023-05-19T00:41:17;18.88;;;10.73;;
59016;SDS011;44800;55.600;38.134;2023-05-19T00:43:46;18.25;;;11.05;;
59016;SDS011;44800;55.600;38.134;2023-05-19T00:46:15;17.20;;;11.43;;
59016;SDS011;44800;55.600;38.134;2023-05-19T00:48:43;16.15;;;11.75;;
59016;SDS011;44800;55.600;38.134;2023-05-19T00:51:12;19.70;;;10.93;;
59016;SDS011;44800;55.600;38.134;2023-05-19T00:53:44;22.70;;;12.63;;
59016;SDS011;44800;55.600;38.134;2023-05-19T00:56:15;19.47;;;12.17;;
59016;SDS011;44800;55.600;38.134;2023-05-19T00:58:43;24.17;;;12.07;;
59016;SDS011;44800;55.600;38.134;2023-05-19T01:01:12;16.20;;;11.73;;
59016;SDS011;44800;55.600;38.134;2023-05-19T01:03:42;19.98;;;10.52;;
59016;SDS011;44800;55.600;38.134;2023-05-19T01:06:12;17.38;;;10.60;;
59016;SDS011;44800;55.600;38.134;2023-05-19T01:08:41;19.00;;;10.18;;
59016;SDS011;44800;55.600;38.134;2023-05-19T01:11:11;16.15;;;10.77;;
59016;SDS011;44800;55.600;38.134;2023-05-19T01:13:40;19.80;;;10.23;;
59016;SDS011;44800;55.600;38.134;2023-05-19T01:16:10;18.65;;;11.50;;
59016;SDS011;44800;55.600;38.134;2023-05-19T01:18:44;16.35;;;10.18;;
59016;SDS011;44800;55.600;38.134;2023-05-19T01:24:22;12.77;;;8.90;;
59016;SDS011;44800;55.600;38.134;2023-05-19T01:30:16;17.00;;;8.65;;
59016;SDS011;44800;55.600;38.134;2023-05-19T01:32:57;13.68;;;8.68;;
59016;SDS011;44800;55.600;38.134;2023-05-19T01:35:28;14.07;;;7.95;;
59016;SDS011;44800;55.600;38.134;2023-05-19T01:37:58;9.40;;;7.95;;
59016;SDS011;44800;55.600;38.134;2023-05-19T01:40:28;9.75;;;6.82;;
59016;SDS011;44800;55.600;38.134;2023-05-19T01:42:58;8.50;;;6.30;;
59016;SDS011;44800;55.600;38.134;2023-05-19T01:45:29;9.35;;;7.18;;
59016;SDS011;44800;55.600;38.134;2023-05-19T01:47:59;10.35;;;6.15;;
59016;SDS011;44800;55.600;38.134;2023-05-19T01:50:28;8.23;;;6.13;;
59016;SDS011;44800;55.600;38.134;2023-05-19T01:52:58;8.02;;;5.60;;
59016;SDS011;44800;55.600;38.134;2023-05-19T01:55:27;10.10;;;6.30;;
59016;SDS011;44800;55.600;38.134;2023-05-19T01:57:59;10.13;;;5.95;;
59016;SDS011;44800;55.600;38.134;2023-05-19T02:00:36;10.15;;;5.55;;
59016;SDS011;44800;55.600;38.134;2023-05-19T02:03:13;7.68;;;5.70;;
59016;SDS011;44800;55.600;38.134;2023-05-19T02:05:51;8.52;;;5.45;;
59016;SDS011;44800;55.600;38.134;2023-05-19T02:08:23;8.75;;;5.25;;
59016;SDS011;44800;55.600;38.134;2023-05-19T02:10:57;9.80;;;5.80;;
59016;SDS011;44800;55.600;38.134;2023-05-19T02:13:30;9.45;;;5.72;;
59016;SDS011;44800;55.600;38.134;2023-05-19T02:16:04;9.25;;;6.43;;
59016;SDS011;44800;55.600;38.134;2023-05-19T02:18:33;7.18;;;5.85;;
59016;SDS011;44800;55.600;38.134;2023-05-19T02:21:02;9.02;;;6.07;;
59016;SDS011;44800;55.600;38.134;2023-05-19T02:23:30;5.68;;;4.90;;
59016;SDS011;44800;55.600;38.134;2023-05-19T02:25:59;7.03;;;5.45;;
59016;SDS011;44800;55.600;38.134;2023-05-19T02:28:27;7.53;;;5.30;;
59016;SDS011;44800;55.600;38.134;2023-05-19T02:30:55;6.75;;;5.00;;
59016;SDS011;44800;55.600;38.134;2023-05-19T02:33:25;6.22;;;5.07;;
59016;SDS011;44800;55.600;38.134;2023-05-19T02:35:56;6.57;;;4.63;;
59016;SDS011;44800;55.600;38.134;2023-05-19T02:38:24;4.70;;;4.30;;
59016;SDS011;44800;55.600;38.134;2023-05-19T02:40:53;5.38;;;4.05;;
59016;SDS011;44800;55.600;38.134;2023-05-19T02:43:21;4.28;;;3.85;;
59016;SDS011;44800;55.600;38.134;2023-05-19T02:45:50;7.32;;;3.33;;
59016;SDS011;44800;55.600;38.134;2023-05-19T02:48:19;3.03;;;2.65;;
59016;SDS011;44800;55.600;38.134;2023-05-19T02:50:49;12.57;;;3.80;;
59016;SDS011;44800;55.600;38.134;2023-05-19T02:53:17;5.18;;;3.42;;
59016;SDS011;44800;55.600;38.134;2023-05-19T02:55:45;4.43;;;3.17;;
59016;SDS011;44800;55.600;38.134;2023-05-19T02:58:14;7.55;;;3.28;;
59016;SDS011;44800;55.600;38.134;2023-05-19T03:00:43;5.50;;;3.80;;
59016;SDS011;44800;55.600;38.134;2023-05-19T03:03:11;3.95;;;3.28;;
59016;SDS011;44800;55.600;38.134;2023-05-19T03:05:40;3.90;;;3.38;;
59016;SDS011;44800;55.600;38.134;2023-05-19T03:08:10;5.65;;;3.50;;
59016;SDS011;44800;55.600;38.134;2023-05-19T03:10:39;6.45;;;3.55;;
59016;SDS011;44800;55.600;38.134;2023-05-19T03:13:07;5.45;;;3.72;;
59016;SDS011;44800;55.600;38.134;2023-05-19T03:15:36;6.57;;;3.75;;
59016;SDS011;44800;55.600;38.134;2023-05-19T03:18:05;5.68;;;3.55;;
59016;SDS011;44800;55.600;38.134;2023-05-19T03:20:34;8.20;;;3.65;;
59016;SDS011;44800;55.600;38.134;2023-05-19T03:23:05;4.97;;;3.03;;
59016;SDS011;44800;55.600;38.134;2023-05-19T03:25:35;7.82;;;3.35;;
59016;SDS011;44800;55.600;38.134;2023-05-19T03:28:04;6.15;;;4.00;;
59016;SDS011;44800;55.600;38.134;2023-05-19T03:30:32;4.95;;;3.08;;
59016;SDS011;44800;55.600;38.134;2023-05-19T03:33:01;4.57;;;3.20;;
59016;SDS011;44800;55.600;38.134;2023-05-19T03:35:30;5.90;;;3.70;;
59016;SDS011;44800;55.600;38.134;2023-05-19T03:37:59;8.20;;;3.97;;
59016;SDS011;44800;55.600;38.134;2023-05-19T03:40:27;6.93;;;2.90;;
59016;SDS011;44800;55.600;38.134;2023-05-19T03:42:57;3.22;;;2.70;;
59016;SDS011;44800;55.600;38.134;2023-05-19T03:45:27;8.75;;;3.15;;
59016;SDS011;44800;55.600;38.134;2023-05-19T03:47:55;5.82;;;3.30;;
59016;SDS011;44800;55.600;38.134;2023-05-19T03:50:24;5.20;;;3.30;;
59016;SDS011;44800;55.600;38.134;2023-05-19T03:52:54;6.63;;;3.45;;
59016;SDS011;44800;55.600;38.134;2023-05-19T03:55:23;5.75;;;2.90;;
59016;SDS011;44800;55.600;38.134;2023-05-19T03:57:51;5.45;;;3.25;;
59016;SDS011;44800;55.600;38.134;2023-05-19T04:00:21;7.60;;;4.38;;
59016;SDS011;44800;55.600;38.134;2023-05-19T04:02:50;6.00;;;3.08;;
59016;SDS011;44800;55.600;38.134;2023-05-19T04:05:18;8.93;;;3.92;;
59016;SDS011;44800;55.600;38.134;2023-05-19T04:07:47;5.68;;;3.17;;
59016;SDS011;44800;55.600;38.134;2023-05-19T04:10:15;9.15;;;3.90;;
59016;SDS011;44800;55.600;38.134;2023-05-19T04:12:43;7.57;;;3.42;;
59016;SDS011;44800;55.600;38.134;2023-05-19T04:15:13;6.47;;;5.03;;
59016;SDS011;44800;55.600;38.134;2023-05-19T04:17:43;4.97;;;3.42;;
59016;SDS011;44800;55.600;38.134;2023-05-19T04:20:11;5.82;;;3.35;;
59016;SDS011;44800;55.600;38.134;2023-05-19T04:22:41;5.93;;;3.85;;
59016;SDS011;44800;55.600;38.134;2023-05-19T04:25:09;5.45;;;3.65;;
59016;SDS011;44800;55.600;38.134;2023-05-19T04:27:38;6.70;;;3.75;;
59016;SDS011;44800;55.600;38.134;2023-05-19T04:30:06;7.32;;;3.80;;
59016;SDS011;44800;55.600;38.134;2023-05-19T04:32:35;11.75;;;4.13;;
59016;SDS011;44800;55.600;38.134;2023-05-19T04:35:06;5.47;;;3.45;;
59016;SDS011;44800;55.600;38.134;2023-05-19T04:37:35;5.05;;;3.67;;
59016;SDS011;44800;55.600;38.134;2023-05-19T04:40:05;6.13;;;3.63;;
59016;SDS011;44800;55.600;38.134;2023-05-19T04:42:36;5.03;;;3.05;;
59016;SDS011;44800;55.600;38.134;2023-05-19T04:45:07;7.38;;;3.97;;
59016;SDS011;44800;55.600;38.134;2023-05-19T04:47:37;5.63;;;3.17;;
59016;SDS011;44800;55.600;38.134;2023-05-19T04:50:09;9.32;;;3.10;;
59016;SDS011;44800;55.600;38.134;2023-05-19T04:52:38;11.75;;;4.05;;
59016;SDS011;44800;55.600;38.134;2023-05-19T04:55:08;9.35;;;3.88;;
59016;SDS011;44800;55.600;38.134;2023-05-19T04:57:39;6.47;;;3.75;;
59016;SDS011;44800;55.600;38.134;2023-05-19T05:00:07;6.32;;;3.30;;
59016;SDS011;44800;55.600;38.134;2023-05-19T05:02:39;7.40;;;3.70;;
59016;SDS011;44800;55.600;38.134;2023-05-19T05:05:09;7.32;;;3.85;;
59016;SDS011;44800;55.600;38.134;2023-05-19T05:07:38;5.88;;;3.50;;
59016;SDS011;44800;55.600;38.134;2023-05-19T05:10:07;8.50;;;3.80;;
59016;SDS011;44800;55.600;38.134;2023-05-19T05:12:36;4.07;;;3.05;;
59016;SDS011;44800;55.600;38.134;2023-05-19T05:15:05;8.27;;;3.72;;
59016;SDS011;44800;55.600;38.134;2023-05-19T05:17:35;6.60;;;3.38;;
59016;SDS011;44800;55.600;38.134;2023-05-19T05:20:04;5.90;;;3.67;;
59016;SDS011;44800;55.600;38.134;2023-05-19T05:22:35;8.00;;;3.83;;
59016;SDS011;44800;55.600;38.134;2023-05-19T05:25:05;9.43;;;4.13;;
59016;SDS011;44800;55.600;38.134;2023-05-19T05:27:35;8.18;;;4.10;;
59016;SDS011;44800;55.600;38.134;2023-05-19T05:30:05;8.77;;;3.72;;
59016;SDS011;44800;55.600;38.134;2023-05-19T05:32:34;8.77;;;4.30;;
59016;SDS011;44800;55.600;38.134;2023-05-19T05:35:03;8.52;;;4.15;;
59016;SDS011;44800;55.600;38.134;2023-05-19T05:37:31;6.90;;;4.43;;
59016;SDS011;44800;55.600;38.134;2023-05-19T05:40:01;7.38;;;4.65;;
59016;SDS011;44800;55.600;38.134;2023-05-19T05:42:32;12.00;;;5.07;;
59016;SDS011;44800;55.600;38.134;2023-05-19T05:45:01;8.35;;;4.22;;
59016;SDS011;44800;55.600;38.134;2023-05-19T05:47:30;15.60;;;5.72;;
59016;SDS011;44800;55.600;38.134;2023-05-19T05:49:59;10.90;;;5.07;;
59016;SDS011;44800;55.600;38.134;2023-05-19T05:52:30;9.80;;;4.85;;
59016;SDS011;44800;55.600;38.134;2023-05-19T05:54:59;7.13;;;5.13;;
59016;SDS011;44800;55.600;38.134;2023-05-19T05:57:30;11.43;;;4.68;;
59016;SDS011;44800;55.600;38.134;2023-05-19T06:00:01;7.85;;;4.85;;
59016;SDS011;44800;55.600;38.134;2023-05-19T06:02:33;7.65;;;5.00;;
59016;SDS011;44800;55.600;38.134;2023-05-19T06:05:02;8.93;;;5.20;;
59016;SDS011;44800;55.600;38.134;2023-05-19T06:07:31;10.05;;;5.57;;
59016;SDS011;44800;55.600;38.134;2023-05-19T06:09:59;11.82;;;5.75;;
59016;SDS011;44800;55.600;38.134;2023-05-19T06:12:31;10.48;;;5.13;;
59016;SDS011;44800;55.600;38.134;2023-05-19T06:15:01;8.80;;;4.65;;
59016;SDS011;44800;55.600;38.134;2023-05-19T06:17:31;6.47;;;5.13;;
59016;SDS011;44800;55.600;38.134;2023-05-19T06:20:01;7.60;;;5.40;;
59016;SDS011;44800;55.600;38.134;2023-05-19T06:22:31;8.85;;;5.47;;
59016;SDS011;44800;55.600;38.134;2023-05-19T06:25:00;8.75;;;5.25;;
59016;SDS011;44800;55.600;38.134;2023-05-19T06:27:31;10.68;;;5.82;;
59016;SDS011;44800;55.600;38.134;2023-05-19T06:30:00;11.68;;;5.72;;
59016;SDS011;44800;55.600;38.134;2023-05-19T06:32:31;12.45;;;6.28;;
59016;SDS011;44800;55.600;38.134;2023-05-19T06:35:00;10.50;;;6.22;;
59016;SDS011;44800;55.600;38.134;2023-05-19T06:37:30;8.40;;;5.40;;
59016;SDS011;44800;55.600;38.134;2023-05-19T06:39:58;12.02;;;5.38;;
59016;SDS011;44800;55.600;38.134;2023-05-19T06:42:27;9.70;;;5.35;;
59016;SDS011;44800;55.600;38.134;2023-05-19T06:44:57;9.02;;;5.50;;
59016;SDS011;44800;55.600;38.134;2023-05-19T06:47:26;9.70;;;6.40;;
59016;SDS011;44800;55.600;38.134;2023-05-19T06:49:54;15.80;;;6.55;;
59016;SDS011;44800;55.600;38.134;2023-05-19T06:52:23;12.35;;;6.40;;
59016;SDS011;44800;55.600;38.134;2023-05-19T06:54:51;10.82;;;6.30;;
59016;SDS011;44800;55.600;38.134;2023-05-19T06:57:20;9.70;;;5.40;;
59016;SDS011;44800;55.600;38.134;2023-05-19T06:59:48;12.93;;;6.65;;
59016;SDS011;44800;55.600;38.134;2023-05-19T07:02:18;10.60;;;6.80;;
59016;SDS011;44800;55.600;38.134;2023-05-19T07:04:47;12.73;;;6.32;;
59016;SDS011;44800;55.600;38.134;2023-05-19T07:07:17;10.43;;;5.93;;
59016;SDS011;44800;55.600;38.134;2023-05-19T07:09:45;11.68;;;6.78;;
59016;SDS011;44800;55.600;38.134;2023-05-19T07:12:14;14.88;;;8.75;;
59016;SDS011;44800;55.600;38.134;2023-05-19T07:14:42;11.75;;;6.78;;
59016;SDS011;44800;55.600;38.134;2023-05-19T07:17:10;13.25;;;7.72;;
59016;SDS011;44800;55.600;38.134;2023-05-19T07:19:41;10.65;;;5.97;;
59016;SDS011;44800;55.600;38.134;2023-05-19T07:22:10;13.15;;;6.75;;
59016;SDS011;44800;55.600;38.134;2023-05-19T07:24:38;12.15;;;7.15;;
59016;SDS011;44800;55.600;38.134;2023-05-19T07:27:06;9.93;;;5.53;;
59016;SDS011;44800;55.600;38.134;2023-05-19T07:29:36;10.38;;;6.07;;
59016;SDS011;44800;55.600;38.134;2023-05-19T07:32:04;10.70;;;5.88;;
59016;SDS011;44800;55.600;38.134;2023-05-19T07:34:33;10.05;;;6.22;;
59016;SDS011;44800;55.600;38.134;2023-05-19T07:37:04;11.57;;;5.90;;
59016;SDS011;44800;55.600;38.134;2023-05-19T07:39:33;10.45;;;5.45;;
59016;SDS011;44800;55.600;38.134;2023-05-19T07:42:02;14.07;;;6.25;;
59016;SDS011;44800;55.600;38.134;2023-05-19T07:44:31;13.00;;;6.07;;
59016;SDS011;44800;55.600;38.134;2023-05-19T07:47:00;10.60;;;6.90;;
59016;SDS011;44800;55.600;38.134;2023-05-19T07:49:28;11.68;;;7.60;;
59016;SDS011;44800;55.600;38.134;2023-05-19T07:51:57;29.73;;;14.48;;
59016;SDS011;44800;55.600;38.134;2023-05-19T07:54:26;10.90;;;6.38;;
59016;SDS011;44800;55.600;38.134;2023-05-19T07:56:55;12.50;;;6.88;;
59016;SDS011;44800;55.600;38.134;2023-05-19T07:59:23;13.57;;;6.60;;
59016;SDS011;44800;55.600;38.134;2023-05-19T08:01:51;12.07;;;6.03;;
59016;SDS011;44800;55.600;38.134;2023-05-19T08:04:20;10.90;;;6.28;;
59016;SDS011;44800;55.600;38.134;2023-05-19T08:06:48;16.75;;;8.05;;
59016;SDS011;44800;55.600;38.134;2023-05-19T08:09:19;12.95;;;6.38;;
59016;SDS011;44800;55.600;38.134;2023-05-19T08:11:49;13.63;;;6.57;;
59016;SDS011;44800;55.600;38.134;2023-05-19T08:14:17;13.23;;;6.43;;
59016;SDS011;44800;55.600;38.134;2023-05-19T08:16:48;11.98;;;5.50;;
59016;SDS011;44800;55.600;38.134;2023-05-19T08:19:17;13.52;;;7.18;;
59016;SDS011;44800;55.600;38.134;2023-05-19T08:21:45;16.98;;;7.10;;
59016;SDS011;44800;55.600;38.134;2023-05-19T08:24:14;13.55;;;8.10;;
59016;SDS011;44800;55.600;38.134;2023-05-19T08:26:42;19.40;;;8.98;;
59016;SDS011;44800;55.600;38.134;2023-05-19T08:29:12;18.77;;;8.40;;
59016;SDS011;44800;55.600;38.134;2023-05-19T08:31:41;16.23;;;8.02;;
59016;SDS011;44800;55.600;38.134;2023-05-19T08:34:09;16.00;;;8.55;;
59016;SDS011;44800;55.600;38.134;2023-05-19T08:36:38;20.27;;;8.63;;
59016;SDS011;44800;55.600;38.134;2023-05-19T08:39:06;15.48;;;8.35;;
59016;SDS011;44800;55.600;38.134;2023-05-19T08:41:35;18.20;;;9.38;;
59016;SDS011;44800;55.600;38.134;2023-05-19T08:44:04;21.90;;;9.63;;
59016;SDS011;44800;55.600;38.134;2023-05-19T08:46:34;17.30;;;8.88;;
59016;SDS011;44800;55.600;38.134;2023-05-19T08:49:03;16.98;;;10.50;;
59016;SDS011;44800;55.600;38.134;2023-05-19T08:51:37;23.88;;;10.30;;
59016;SDS011;44800;55.600;38.134;2023-05-19T08:54:10;20.30;;;9.63;;
59016;SDS011;44800;55.600;38.134;2023-05-19T08:59:10;17.75;;;9.50;;
59016;SDS011;44800;55.600;38.134;2023-05-19T09:01:40;23.15;;;10.07;;
59016;SDS011;44800;55.600;38.134;2023-05-19T09:04:09;22.88;;;11.23;;
59016;SDS011;44800;55.600;38.134;2023-05-19T09:06:39;19.60;;;10.20;;
59016;SDS011;44800;55.600;38.134;2023-05-19T09:09:07;25.27;;;10.75;;
59016;SDS011;44800;55.600;38.134;2023-05-19T09:11:37;22.45;;;10.57;;
59016;SDS011;44800;55.600;38.134;2023-05-19T09:14:06;21.13;;;11.13;;
59016;SDS011;44800;55.600;38.134;2023-05-19T09:16:34;23.60;;;11.77;;
59016;SDS011;44800;55.600;38.134;2023-05-19T09:19:04;25.20;;;12.23;;
59016;SDS011;44800;55.600;38.134;2023-05-19T09:21:34;26.98;;;11.52;;
59016;SDS011;44800;55.600;38.134;2023-05-19T09:24:03;21.10;;;12.07;;
59016;SDS011;44800;55.600;38.134;2023-05-19T09:26:36;24.52;;;13.02;;
59016;SDS011;44800;55.600;38.134;2023-05-19T09:29:14;28.95;;;13.93;;
59016;SDS011;44800;55.600;38.134;2023-05-19T09:31:47;29.30;;;13.77;;
59016;SDS011;44800;55.600;38.134;2023-05-19T09:36:47;25.80;;;13.45;;
59016;SDS011;44800;55.600;38.134;2023-05-19T09:39:16;27.35;;;13.27;;
59016;SDS011;44800;55.600;38.134;2023-05-19T09:41:45;28.08;;;13.88;;
59016;SDS011;44800;55.600;38.134;2023-05-19T09:44:20;27.80;;;14.00;;
59016;SDS011;44800;55.600;38.134;2023-05-19T09:46:49;32.25;;;14.70;;
59016;SDS011;44800;55.600;38.134;2023-05-19T09:49:22;32.63;;;15.65;;
59016;SDS011;44800;55.600;38.134;2023-05-19T09:51:52;30.92;;;13.98;;
59016;SDS011;44800;55.600;38.134;2023-05-19T09:54:21;25.13;;;13.77;;
59016;SDS011;44800;55.600;38.134;2023-05-19T09:56:50;29.23;;;14.68;;
59016;SDS011;44800;55.600;38.134;2023-05-19T09:59:24;34.08;;;13.73;;
59016;SDS011;44800;55.600;38.134;2023-05-19T10:01:55;31.70;;;14.43;;
59016;SDS011;44800;55.600;38.134;2023-05-19T10:04:26;33.35;;;14.50;;
59016;SDS011;44800;55.600;38.134;2023-05-19T10:06:55;31.65;;;15.25;;
59016;SDS011;44800;55.600;38.134;2023-05-19T10:09:26;30.88;;;15.52;;
59016;SDS011;44800;55.600;38.134;2023-05-19T10:11:56;28.25;;;14.48;;
59016;SDS011;44800;55.600;38.134;2023-05-19T10:14:27;29.15;;;14.50;;
59016;SDS011;44800;55.600;38.134;2023-05-19T10:16:56;32.28;;;13.77;;
59016;SDS011;44800;55.600;38.134;2023-05-19T10:19:27;31.98;;;14.85;;
59016;SDS011;44800;55.600;38.134;2023-05-19T10:21:56;25.58;;;14.35;;
59016;SDS011;44800;55.600;38.134;2023-05-19T10:24:25;32.17;;;15.05;;
59016;SDS011;44800;55.600;38.134;2023-05-19T10:26:55;34.33;;;17.40;;
59016;SDS011;44800;55.600;38.134;2023-05-19T10:29:29;39.10;;;16.13;;
59016;SDS011;44800;55.600;38.134;2023-05-19T10:31:59;41.28;;;17.02;;
59016;SDS011;44800;55.600;38.134;2023-05-19T10:34:51;39.08;;;16.15;;
59016;SDS011;44800;55.600;38.134;2023-05-19T10:37:33;28.48;;;14.50;;
59016;SDS011;44800;55.600;38.134;2023-05-19T10:40:09;28.52;;;13.80;;
59016;SDS011;44800;55.600;38.134;2023-05-19T10:42:43;26.35;;;14.68;;
59016;SDS011;44800;55.600;38.134;2023-05-19T10:45:15;26.83;;;12.60;;
59016;SDS011;44800;55.600;38.134;2023-05-19T10:47:45;21.55;;;11.85;;
59016;SDS011;44800;55.600;38.134;2023-05-19T10:50:15;34.03;;;13.50;;
59016;SDS011;44800;55.600;38.134;2023-05-19T10:52:43;35.58;;;19.85;;
59016;SDS011;44800;55.600;38.134;2023-05-19T11:01:07;41.85;;;21.35;;
59016;SDS011;44800;55.600;38.134;2023-05-19T11:03:43;38.65;;;18.60;;
59016;SDS011;44800;55.600;38.134;2023-05-19T11:06:18;24.13;;;11.75;;
59016;SDS011;44800;55.600;38.134;2023-05-19T11:08:51;26.98;;;13.25;;
59016;SDS011;44800;55.600;38.134;2023-05-19T11:11:20;32.47;;;15.43;;
59016;SDS011;44800;55.600;38.134;2023-05-19T11:13:50;28.95;;;13.40;;
59016;SDS011;44800;55.600;38.134;2023-05-19T11:16:25;32.97;;;15.77;;
59016;SDS011;44800;55.600;38.134;2023-05-19T11:18:54;28.88;;;13.13;;
59016;SDS011;44800;55.600;38.134;2023-05-19T11:21:24;21.55;;;11.55;;
59016;SDS011;44800;55.600;38.134;2023-05-19T11:24:08;18.35;;;9.02;;
59016;SDS011;44800;55.600;38.134;2023-05-19T11:26:39;15.82;;;7.88;;
59016;SDS011;44800;55.600;38.134;2023-05-19T11:29:09;20.30;;;9.32;;
59016;SDS011;44800;55.600;38.134;2023-05-19T11:31:38;16.42;;;7.45;;
59016;SDS011;44800;55.600;38.134;2023-05-19T11:34:06;20.48;;;8.10;;
59016;SDS011;44800;55.600;38.134;2023-05-19T11:36:37;14.93;;;7.80;;
59016;SDS011;44800;55.600;38.134;2023-05-19T11:39:05;16.15;;;7.50;;
59016;SDS011;44800;55.600;38.134;2023-05-19T11:41:37;16.23;;;7.07;;
59016;SDS011;44800;55.600;38.134;2023-05-19T11:44:08;16.25;;;6.82;;
59016;SDS011;44800;55.600;38.134;2023-05-19T11:46:38;14.80;;;7.72;;
59016;SDS011;44800;55.600;38.134;2023-05-19T11:49:06;17.23;;;7.25;;
59016;SDS011;44800;55.600;38.134;2023-05-19T11:51:35;17.45;;;7.07;;
59016;SDS011;44800;55.600;38.134;2023-05-19T11:54:05;20.55;;;7.60;;
59016;SDS011;44800;55.600;38.134;2023-05-19T11:56:33;14.77;;;5.85;;
59016;SDS011;44800;55.600;38.134;2023-05-19T11:59:04;16.55;;;6.47;;
59016;SDS011;44800;55.600;38.134;2023-05-19T12:01:32;14.30;;;5.82;;
59016;SDS011;44800;55.600;38.134;2023-05-19T12:04:01;18.50;;;6.15;;
59016;SDS011;44800;55.600;38.134;2023-05-19T12:06:31;10.88;;;6.03;;
59016;SDS011;44800;55.600;38.134;2023-05-19T12:09:03;12.57;;;6.20;;
59016;SDS011;44800;55.600;38.134;2023-05-19T12:11:32;16.23;;;6.80;;
59016;SDS011;44800;55.600;38.134;2023-05-19T12:14:01;21.98;;;7.22;;
59016;SDS011;44800;55.600;38.134;2023-05-19T12:16:33;14.50;;;5.75;;
59016;SDS011;44800;55.600;38.134;2023-05-19T12:19:04;14.97;;;6.13;;
59016;SDS011;44800;55.600;38.134;2023-05-19T12:21:32;10.98;;;4.68;;
59016;SDS011;44800;55.600;38.134;2023-05-19T12:24:02;9.95;;;4.82;;
59016;SDS011;44800;55.600;38.134;2023-05-19T12:26:32;7.55;;;4.50;;
59016;SDS011;44800;55.600;38.134;2023-05-19T12:29:03;9.45;;;4.40;;
59016;SDS011;44800;55.600;38.134;2023-05-19T12:31:33;7.63;;;4.18;;
59016;SDS011;44800;55.600;38.134;2023-05-19T12:34:01;9.93;;;4.75;;
59016;SDS011;44800;55.600;38.134;2023-05-19T12:36:30;8.20;;;3.80;;
59016;SDS011;44800;55.600;38.134;2023-05-19T12:38:59;6.30;;;3.58;;
59016;SDS011;44800;55.600;38.134;2023-05-19T12:41:29;10.43;;;4.53;;
59016;SDS011;44800;55.600;38.134;2023-05-19T12:43:57;5.60;;;3.65;;
59016;SDS011;44800;55.600;38.134;2023-05-19T12:46:26;10.07;;;3.28;;
59016;SDS011;44800;55.600;38.134;2023-05-19T12:48:57;5.25;;;2.83;;
59016;SDS011;44800;55.600;38.134;2023-05-19T12:51:27;7.07;;;4.00;;
59016;SDS011;44800;55.600;38.134;2023-05-19T12:53:55;7.60;;;3.10;;
59016;SDS011;44800;55.600;38.134;2023-05-19T12:56:24;11.48;;;3.78;;
59016;SDS011;44800;55.600;38.134;2023-05-19T12:58:55;11.88;;;3.70;;
59016;SDS011;44800;55.600;38.134;2023-05-19T13:01:23;5.57;;;3.55;;
59016;SDS011;44800;55.600;38.134;2023-05-19T13:03:52;10.20;;;3.83;;
59016;SDS011;44800;55.600;38.134;2023-05-19T13:06:20;10.75;;;3.88;;
59016;SDS011;44800;55.600;38.134;2023-05-19T13:08:48;8.45;;;3.80;;
59016;SDS011;44800;55.600;38.134;2023-05-19T13:11:17;10.93;;;3.22;;
59016;SDS011;44800;55.600;38.134;2023-05-19T13:13:46;5.53;;;3.25;;
59016;SDS011;44800;55.600;38.134;2023-05-19T13:16:16;6.60;;;3.40;;
59016;SDS011;44800;55.600;38.134;2023-05-19T13:18:45;8.05;;;4.05;;
59016;SDS011;44800;55.600;38.134;2023-05-19T13:21:14;18.23;;;3.72;;
59016;SDS011;44800;55.600;38.134;2023-05-19T13:23:44;8.30;;;3.10;;
59016;SDS011;44800;55.600;38.134;2023-05-19T13:26:13;6.85;;;2.67;;
59016;SDS011;44800;55.600;38.134;2023-05-19T13:28:42;5.32;;;2.85;;
59016;SDS011;44800;55.600;38.134;2023-05-19T13:31:11;9.20;;;3.30;;
59016;SDS011;44800;55.600;38.134;2023-05-19T13:33:41;7.18;;;2.78;;
59016;SDS011;44800;55.600;38.134;2023-05-19T13:36:10;4.10;;;2.47;;
59016;SDS011;44800;55.600;38.134;2023-05-19T13:38:39;8.23;;;2.88;;
59016;SDS011;44800;55.600;38.134;2023-05-19T13:41:08;6.82;;;2.80;;
59016;SDS011;44800;55.600;38.134;2023-05-19T13:43:38;8.82;;;3.00;;
59016;SDS011;44800;55.600;38.134;2023-05-19T13:46:08;6.72;;;2.65;;
59016;SDS011;44800;55.600;38.134;2023-05-19T13:48:37;5.20;;;2.60;;
59016;SDS011;44800;55.600;38.134;2023-05-19T13:51:08;8.48;;;2.83;;
59016;SDS011;44800;55.600;38.134;2023-05-19T13:53:40;5.60;;;2.58;;
59016;SDS011;44800;55.600;38.134;2023-05-19T13:56:09;8.95;;;2.85;;
59016;SDS011;44800;55.600;38.134;2023-05-19T13:58:38;7.60;;;2.80;;
59016;SDS011;44800;55.600;38.134;2023-05-19T14:01:07;8.40;;;2.80;;
59016;SDS011;44800;55.600;38.134;2023-05-19T14:03:36;9.23;;;3.05;;
59016;SDS011;44800;55.600;38.134;2023-05-19T14:06:05;9.70;;;2.90;;
59016;SDS011;44800;55.600;38.134;2023-05-19T14:08:36;9.65;;;3.08;;
59016;SDS011;44800;55.600;38.134;2023-05-19T14:11:07;6.20;;;2.67;;
59016;SDS011;44800;55.600;38.134;2023-05-19T14:13:36;9.38;;;2.80;;
59016;SDS011;44800;55.600;38.134;2023-05-19T14:16:08;5.20;;;2.63;;
59016;SDS011;44800;55.600;38.134;2023-05-19T14:18:38;12.20;;;2.85;;
59016;SDS011;44800;55.600;38.134;2023-05-19T14:21:07;5.85;;;2.72;;
59016;SDS011;44800;55.600;38.134;2023-05-19T14:23:38;9.23;;;2.50;;
59016;SDS011;44800;55.600;38.134;2023-05-19T14:26:08;11.43;;;2.50;;
59016;SDS011;44800;55.600;38.134;2023-05-19T14:28:37;7.68;;;2.17;;
59016;SDS011;44800;55.600;38.134;2023-05-19T14:31:09;5.30;;;2.65;;
59016;SDS011;44800;55.600;38.134;2023-05-19T14:33:38;7.40;;;2.60;;
59016;SDS011;44800;55.600;38.134;2023-05-19T14:36:07;5.63;;;3.55;;
59016;SDS011;44800;55.600;38.134;2023-05-19T14:38:39;5.80;;;2.38;;
59016;SDS011;44800;55.600;38.134;2023-05-19T14:41:08;5.40;;;2.63;;
59016;SDS011;44800;55.600;38.134;2023-05-19T14:43:37;5.07;;;2.22;;
59016;SDS011;44800;55.600;38.134;2023-05-19T14:46:07;8.77;;;2.92;;
59016;SDS011;44800;55.600;38.134;2023-05-19T14:48:36;4.70;;;2.40;;
59016;SDS011;44800;55.600;38.134;2023-05-19T14:51:05;5.65;;;2.38;;
59016;SDS011;44800;55.600;38.134;2023-05-19T14:53:40;7.30;;;1.98;;
59016;SDS011;44800;55.600;38.134;2023-05-19T14:56:10;5.70;;;1.88;;